NEW EXCHEQUER-LK MCCLURE (EXC)

Elevation: 879' · MERCED R basin · Operator: Merced Irrigation District

Provisional data, subject to change.
Query executed Wednesday at 4:42:21   clock

Select a sensor type for a plot of data.
Note: Reservoir Flows are daily averages.

Earlier

Date RES ELE    STORAGE    RES CHG    TOC STO    ABV TOC    OUTFLOW    INFLOW    PPT INC    TEMP MN    TEMP MX    TEMP AV    EVP PAN   
 FEET   AF   AF   AF   AF   CFS   CFS   INCHES   DEG F   DEG F   DEG F   INCHES  
04/05/2016 732.53 356359 2489 758296 -368195 600 2971 0.00 53 77 63 --
04/06/2016 734.14 361565 3162 762100 -366095 453 3079 0.00 56 82 68 --
04/07/2016 735.79 366957 3425 765904 -364568 796 3515 0.00 60 77 67 --
04/08/2016 737.64 373077 3796 769709 -396632 711 3797 1.36 59 73 63 --
04/09/2016 740.39 382313 6566 773513 -391200 257 4915 0.28 55 60 58 --
04/10/2016 742.45 389343 -- 777317 -387974 135 3680 0.03 53 62 57 --
04/11/2016 744.06 394899 -- 781122 -386223 355 3157 0.00 51 68 60 --
04/12/2016 745.74 400758 3690 757280 -384168 58 3013 0.00 51 70 60 0.18
04/13/2016 747.27 406148 3553 760439 -382582 381 3099 0.00 51 69 59 0.24
04/14/2016 741.61 410911 3443 763294 -352383 517 2919 0.00 51 64 57 0.24
04/15/2016 749.72 414886 2575 765644 -350758 618 2622 0.00 43 70 57 0.25
04/16/2016 750.73 418528 1980 767494 -348966 490 2327 0.00 49 74 61 0.22
04/17/2016 751.93 422884 2427 770238 -347354 648 2845 0.00 55 84 68 0.27
04/18/2016 753.47 428521 2921 774125 -345604 670 3512 0.00 59 85 70 18.32
04/19/2016 755.12 434619 3430 760477 -343342 406 3481 0.00 59 84 71 18.27
04/20/2016 756.88 441195 3952 765199 -341463 670 3986 0.00 57 81 68 0.26
04/21/2016 758.69 448028 4409 769651 -321623 381 3827 0.00 53 79 65 0.24
04/22/2016 760.39 454518 4421 774503 -319985 790 4063 0.46 53 64 57 18.29
04/23/2016 764.45 458597 2652 777465 -320295 982 2949 0.00 49 67 58 0.18
04/24/2016 762.42 462355 2400 780012 -317657 805 2701 0.00 52 69 59 0.23
04/25/2016 763.26 465627 1907 782053 -316426 748 2398 0.00 44 65 55 0.23
04/26/2016 763.93 468251 1448 726983 -315206 693 2016 0.00 47 68 58 0.19
04/27/2016 764.59 470844 1452 728512 -314042 718 2025 0.01 51 65 56 0.13
04/28/2016 765.25 473450 1737 729800 -256350 560 1874 0.00 46 69 58 0.11
04/29/2016 766.04 476582 1703 731352 -254770 443 2023 0.00 54 74 63 0.23
04/30/2016 766.85 479810 1672 733151 -253341 536 2163 0.00 52 79 66 0.28
05/01/2016 767.58 482732 1680 734193 -251461 730 2203 0.00 56 81 69 0.28
05/02/2016 768.16 485063 1326 734935 -249872 840 2016 0.00 60 84 71 0.32
05/03/2016 768.57 486717 1654 -- -- -- -- -- 61 83 72 0.20
05/04/2016 -- -- -- -- -- -- -- -- -- -- -- --

Later | Latest

Warning! This data is preliminary and subject to revision.

Show EXC Map | Plot EXC Data | 1 Month EXC Data | Real-Time EXC Data | EXC Info